x

West Santa Barbara 38 Nm West Of Santa Barbara, Ca (46054) Wave Buoy

8:50 - Thu 5th Mar 2015 All times are PST. -8 hours from GMT.

  • Sig Wave height 3.9ft
  • Swell Direction
  • Peak Period 15s
  • Average Period 8s
  • Wind
    16mph, 18mph gusts
  • Sea Temp 60°f
  • Ar Temp 60°f
  • Sea Pressure 1022.4mb
  • West Santa Barbara  38 Nm West Of Santa Barbara, Ca
  • West Santa Barbara  38 Nm West Of Santa Barbara, Ca

More Historic Weather Station data

Upgrade to MSW Pro to gain access to the past 30 days of data for over 8000 Wavebouys and Weather Stations around the globe.

Join Pro

Comparision Forecast

View Surf forecast
   
Qui 03/05 8:50 4ft 15s 8s 16 18 mph 1022.4mb 60f 60f
7:50 3.5ft 11s 7s 13 16 mph 1022.3mb 60f 61f
6:50 4ft 15s 8s 11 13 mph 1022.3mb 60f 60f
5:50 3.5ft 14s 8s 9 11 mph 1022.4mb 60f 61f
4:50 4ft 15s 8s 7 11 mph 1022.4mb 60f 61f
3:50 3.5ft 15s 8s 7 9 mph 1022.6mb 62f 62f
2:50 3.5ft 15s 8s 7
mph
1022.9mb 62f 62f
1:50 3.5ft 16s 8s 4
mph
1023.1mb 63f 63f
12:50 3.5ft 15s 8s 2
mph
1023.8mb 60f 62f
11:50 3.5ft 15s 8s  -  mph 1024.8mb 60f 61f
10:50 3.5ft 15s 8s 4
mph
1025mb 59f 59f
9:50 4ft 16s 8s 2 4 mph 1025.1mb 59f 59f
8:50 4.5ft 15s 8s 4 7 mph 1024.8mb 59f 59f
7:50 4.5ft 16s 7s 4
mph
1024mb 59f 59f
6:50 4.5ft 16s 8s 4
mph
1023.2mb 59f 58f
5:50 4.5ft 16s 8s 2 4 mph 1022.5mb 59f 58f
4:50 4.5ft 9s 8s 2 4 mph 1021.8mb 59f 58f
3:50 4.5ft 16s 8s 2 4 mph 1021.2mb 59f 58f
2:50 4.5ft 15s 8s 4
mph
1021.2mb 59f 58f
1:50 4.5ft 16s 8s 4 7 mph 1021.2mb 59f 59f
12:50 4.5ft 15s 8s 4
mph
1021.2mb 59f 59f
Qua 03/04 11:50 4.5ft 16s 8s 4
mph
1021.1mb 59f 59f
10:50 4.5ft 13s 8s 2 4 mph 1021.2mb 59f 60f
9:50 4.5ft 16s 8s 7
mph
1021mb 59f 60f
8:50 4.5ft 16s 8s 7
mph
1020.6mb 59f 60f
7:50 4.5ft 16s 8s 9 11 mph 1020.3mb 59f 59f
6:50 5ft 14s 8s 9 11 mph 1019.9mb 59f 59f
5:50 5ft 16s 8s 9 11 mph 1019.4mb 59f 59f
4:50 5ft 16s 7s 9
mph
1019.1mb 59f 60f
3:50 4.5ft 16s 7s 7 9 mph 1018.8mb 60f 61f
2:50 5ft 16s 8s 4 7 mph 1018.8mb 59f 61f
1:50 5ft 16s 8s  -  2 mph 1018.7mb 60f 62f
12:50 5ft 16s 7s 2 4 mph 1019mb 59f 60f
11:50 5ft 17s 8s 4 7 mph 1019.2mb 59f 59f
10:50 5ft 16s 7s 4
mph
1019mb 59f 58f
9:50 5.5ft 10s 7s 4 7 mph 1018.6mb 58f 58f
8:50 6ft 16s 8s 4 7 mph 1018mb 58f 58f
7:50 6ft 10s 7s 9
mph
1016.9mb 58f 58f
6:50 6ft 16s 7s 7 9 mph 1016mb 58f 57f
5:50 6ft 17s 7s 7
mph
1015.4mb 58f 57f
4:50 6ft 17s 7s 9
mph
1014.9mb 58f 57f
3:50 6ft 10s 7s 13 18 mph 1014.5mb 58f 57f
2:50 6.5ft 11s 7s 18 20 mph 1014.5mb 58f 56f
1:50 7ft 10s 7s 20 25 mph 1014.7mb 58f 57f
12:50 6ft 10s 6s 20 25 mph 1014.8mb 58f 56f
Ter 03/03 11:50 6ft 17s 6s 22 27 mph 1014.3mb 58f 56f
10:50 6.5ft 10s 6s 25 29 mph 1014.2mb 58f 57f
9:50 6ft 10s 6s 25 29 mph 1014mb 58f 57f
8:50 6ft 10s 6s 22 29 mph 1013.7mb 58f 57f
7:50 6.5ft 10s 6s 25 29 mph 1013.4mb 58f 57f
6:50 6ft 10s 6s 27 31 mph 1012.7mb 58f 57f
5:50 6.5ft 10s 6s 25 29 mph 1012.3mb 58f 57f
4:50 6.5ft 11s 6s 25 31 mph 1012.1mb 58f 57f
3:50 6.5ft 11s 6s 25 31 mph 1012.4mb 58f 57f
2:50 7ft 10s 7s 22 27 mph 1012.9mb 58f 57f
1:50 6.5ft 10s 7s 22 29 mph 1013.2mb 58f 57f
12:50 5.5ft 9s 7s 20 25 mph 1014mb 58f 57f
11:50 6ft 9s 7s 18 22 mph 1014.6mb 58f 56f
10:50 6ft 10s 8s 13 16 mph 1015mb 59f 57f
9:50 5.5ft 9s 8s 7 9 mph 1015.3mb 58f 56f
8:50 5.5ft 10s 7s 11
mph
1015.2mb 58f 56f
7:50 6ft 9s 8s 11 13 mph 1014.5mb 58f 56f
6:50 6ft 10s 8s 7 9 mph 1013.9mb 58f 56f
5:50 6ft 10s 8s 9 11 mph 1013.6mb 58f 55f
4:50 6ft 10s 8s 11 13 mph 1013.4mb 58f 56f
3:50 6ft 11s 8s 11 13 mph 1013.3mb 58f 56f
2:50 6ft 11s 8s 11 13 mph 1013.7mb 58f 56f
1:50 6ft 10s 7s 11 16 mph 1013.8mb 59f 56f
12:50 4.5ft 10s 7s 16 20 mph 1013.7mb 59f 56f
Seg 03/02 11:50 5ft 11s 7s 13 18 mph 1013.8mb 59f 56f
10:50 4.5ft 10s 7s 11 18 mph 1013.6mb 59f 57f
9:50 4.5ft 10s 8s 11 13 mph 1013.5mb 59f 56f
8:50 4.5ft 10s 7s 11 13 mph 1013.1mb 59f 56f
7:50 4.5ft 10s 7s 7 9 mph 1012.8mb 59f 56f
6:50 4.5ft 9s 7s 9 11 mph 1012mb 59f 56f
5:50 4.5ft 10s 7s 4 7 mph 1011.8mb 60f 56f
4:50 4.5ft 10s 7s 4
mph
1011.7mb 60f 56f
3:50 5ft 10s 7s 4 7 mph 1011.6mb 60f 56f
2:50 5.5ft 10s 7s 4 9 mph 1011.5mb 60f 56f
1:50 5ft 10s 7s 4
mph
1011.8mb 60f 56f
12:50 5ft 10s 7s 7 9 mph 1012.1mb 59f 56f
11:50 5ft 10s 7s 16 18 mph 1012.6mb 59f 54f
10:50 6ft 10s 7s 13 16 mph 1012.6mb 59f 55f
9:50 6ft 10s 8s 11 16 mph 1012.8mb 59f 53f
8:50 6ft 11s 8s 2 7 mph 1012.5mb 59f 56f
7:50 5.5ft 11s 8s 2 4 mph 1011.9mb 59f 56f
6:50 5.5ft 11s 8s 2 4 mph 1011.7mb 59f 55f